sensor_id;sensor_type;location;lat;lon;timestamp;P1;durP1;ratioP1;P2;durP2;ratioP2
57199;SDS011;43061;43.902;22.266;2022-07-29T00:00:04;8.10;;;3.50;;
57199;SDS011;43061;43.902;22.266;2022-07-29T00:02:30;8.63;;;3.50;;
57199;SDS011;43061;43.902;22.266;2022-07-29T00:04:57;6.85;;;3.20;;
57199;SDS011;43061;43.902;22.266;2022-07-29T00:07:23;6.97;;;3.15;;
57199;SDS011;43061;43.902;22.266;2022-07-29T00:09:49;6.70;;;3.30;;
57199;SDS011;43061;43.902;22.266;2022-07-29T00:12:15;6.15;;;3.50;;
57199;SDS011;43061;43.902;22.266;2022-07-29T00:14:42;7.38;;;3.25;;
57199;SDS011;43061;43.902;22.266;2022-07-29T00:17:08;9.23;;;3.80;;
57199;SDS011;43061;43.902;22.266;2022-07-29T00:19:34;8.80;;;3.40;;
57199;SDS011;43061;43.902;22.266;2022-07-29T00:22:00;9.77;;;3.30;;
57199;SDS011;43061;43.902;22.266;2022-07-29T00:24:26;9.95;;;3.38;;
57199;SDS011;43061;43.902;22.266;2022-07-29T00:26:53;5.47;;;3.28;;
57199;SDS011;43061;43.902;22.266;2022-07-29T00:29:19;8.30;;;3.50;;
57199;SDS011;43061;43.902;22.266;2022-07-29T00:31:45;7.30;;;3.60;;
57199;SDS011;43061;43.902;22.266;2022-07-29T00:34:11;7.40;;;3.63;;
57199;SDS011;43061;43.902;22.266;2022-07-29T00:36:55;5.95;;;3.10;;
57199;SDS011;43061;43.902;22.266;2022-07-29T00:39:22;6.50;;;2.97;;
57199;SDS011;43061;43.902;22.266;2022-07-29T00:41:48;5.68;;;3.28;;
57199;SDS011;43061;43.902;22.266;2022-07-29T00:44:14;7.18;;;3.20;;
57199;SDS011;43061;43.902;22.266;2022-07-29T00:46:40;5.88;;;3.30;;
57199;SDS011;43061;43.902;22.266;2022-07-29T00:49:06;7.60;;;3.10;;
57199;SDS011;43061;43.902;22.266;2022-07-29T00:51:34;7.10;;;3.45;;
57199;SDS011;43061;43.902;22.266;2022-07-29T00:54:00;6.93;;;3.10;;
57199;SDS011;43061;43.902;22.266;2022-07-29T00:56:26;9.30;;;3.40;;
57199;SDS011;43061;43.902;22.266;2022-07-29T00:58:52;6.53;;;3.30;;
57199;SDS011;43061;43.902;22.266;2022-07-29T01:01:19;7.43;;;3.63;;
57199;SDS011;43061;43.902;22.266;2022-07-29T01:03:45;7.28;;;3.53;;
57199;SDS011;43061;43.902;22.266;2022-07-29T01:06:11;6.38;;;3.20;;
57199;SDS011;43061;43.902;22.266;2022-07-29T01:08:37;8.45;;;3.47;;
57199;SDS011;43061;43.902;22.266;2022-07-29T01:11:05;7.20;;;3.40;;
57199;SDS011;43061;43.902;22.266;2022-07-29T01:13:31;7.95;;;3.80;;
57199;SDS011;43061;43.902;22.266;2022-07-29T01:15:59;9.50;;;3.95;;
57199;SDS011;43061;43.902;22.266;2022-07-29T01:18:34;10.75;;;3.70;;
57199;SDS011;43061;43.902;22.266;2022-07-29T01:23:57;7.60;;;4.03;;
57199;SDS011;43061;43.902;22.266;2022-07-29T01:26:31;8.48;;;4.22;;
57199;SDS011;43061;43.902;22.266;2022-07-29T01:29:12;8.30;;;3.90;;
57199;SDS011;43061;43.902;22.266;2022-07-29T01:37:08;11.15;;;4.70;;
57199;SDS011;43061;43.902;22.266;2022-07-29T01:39:38;8.88;;;4.13;;
57199;SDS011;43061;43.902;22.266;2022-07-29T01:42:10;6.95;;;3.88;;
57199;SDS011;43061;43.902;22.266;2022-07-29T01:44:45;8.27;;;4.60;;
57199;SDS011;43061;43.902;22.266;2022-07-29T01:47:14;10.18;;;5.00;;
57199;SDS011;43061;43.902;22.266;2022-07-29T01:49:43;8.38;;;4.55;;
57199;SDS011;43061;43.902;22.266;2022-07-29T01:52:29;10.70;;;4.78;;
57199;SDS011;43061;43.902;22.266;2022-07-29T01:54:57;9.50;;;4.68;;
57199;SDS011;43061;43.902;22.266;2022-07-29T01:57:28;8.85;;;4.53;;
57199;SDS011;43061;43.902;22.266;2022-07-29T01:59:56;9.90;;;4.90;;
57199;SDS011;43061;43.902;22.266;2022-07-29T02:02:22;12.63;;;5.13;;
57199;SDS011;43061;43.902;22.266;2022-07-29T02:04:49;7.47;;;4.47;;
57199;SDS011;43061;43.902;22.266;2022-07-29T02:07:18;8.90;;;4.60;;
57199;SDS011;43061;43.902;22.266;2022-07-29T02:09:45;7.63;;;4.80;;
57199;SDS011;43061;43.902;22.266;2022-07-29T02:12:12;10.73;;;4.63;;
57199;SDS011;43061;43.902;22.266;2022-07-29T02:14:40;11.45;;;4.47;;
57199;SDS011;43061;43.902;22.266;2022-07-29T02:17:07;7.82;;;4.38;;
57199;SDS011;43061;43.902;22.266;2022-07-29T02:19:33;8.77;;;4.53;;
57199;SDS011;43061;43.902;22.266;2022-07-29T02:22:00;14.80;;;4.68;;
57199;SDS011;43061;43.902;22.266;2022-07-29T02:24:26;12.18;;;4.60;;
57199;SDS011;43061;43.902;22.266;2022-07-29T02:26:53;8.73;;;4.32;;
57199;SDS011;43061;43.902;22.266;2022-07-29T02:29:21;7.25;;;4.30;;
57199;SDS011;43061;43.902;22.266;2022-07-29T02:31:48;9.68;;;4.68;;
57199;SDS011;43061;43.902;22.266;2022-07-29T02:34:15;13.15;;;4.30;;
57199;SDS011;43061;43.902;22.266;2022-07-29T02:36:41;8.77;;;4.57;;
57199;SDS011;43061;43.902;22.266;2022-07-29T02:39:08;9.52;;;4.40;;
57199;SDS011;43061;43.902;22.266;2022-07-29T02:44:12;7.57;;;4.10;;
57199;SDS011;43061;43.902;22.266;2022-07-29T02:46:41;9.38;;;4.70;;
57199;SDS011;43061;43.902;22.266;2022-07-29T02:51:49;7.55;;;4.55;;
57199;SDS011;43061;43.902;22.266;2022-07-29T02:54:20;8.55;;;4.88;;
57199;SDS011;43061;43.902;22.266;2022-07-29T02:56:48;11.52;;;5.05;;
57199;SDS011;43061;43.902;22.266;2022-07-29T02:59:18;11.55;;;4.88;;
57199;SDS011;43061;43.902;22.266;2022-07-29T03:01:46;7.68;;;4.43;;
57199;SDS011;43061;43.902;22.266;2022-07-29T03:04:12;10.27;;;4.80;;
57199;SDS011;43061;43.902;22.266;2022-07-29T03:06:39;11.63;;;4.55;;
57199;SDS011;43061;43.902;22.266;2022-07-29T03:09:06;9.18;;;4.60;;
57199;SDS011;43061;43.902;22.266;2022-07-29T03:11:34;9.93;;;4.70;;
57199;SDS011;43061;43.902;22.266;2022-07-29T03:14:00;9.88;;;4.45;;
57199;SDS011;43061;43.902;22.266;2022-07-29T03:16:27;9.15;;;4.75;;
57199;SDS011;43061;43.902;22.266;2022-07-29T03:18:53;8.82;;;4.47;;
57199;SDS011;43061;43.902;22.266;2022-07-29T03:21:20;9.98;;;4.80;;
57199;SDS011;43061;43.902;22.266;2022-07-29T03:23:46;10.02;;;4.80;;
57199;SDS011;43061;43.902;22.266;2022-07-29T03:26:12;11.27;;;4.60;;
57199;SDS011;43061;43.902;22.266;2022-07-29T03:28:38;10.25;;;4.57;;
57199;SDS011;43061;43.902;22.266;2022-07-29T03:31:04;9.50;;;4.65;;
57199;SDS011;43061;43.902;22.266;2022-07-29T03:33:30;11.88;;;4.80;;
57199;SDS011;43061;43.902;22.266;2022-07-29T03:35:56;8.50;;;4.50;;
57199;SDS011;43061;43.902;22.266;2022-07-29T03:38:23;7.32;;;4.38;;
57199;SDS011;43061;43.902;22.266;2022-07-29T03:40:54;10.95;;;5.05;;
57199;SDS011;43061;43.902;22.266;2022-07-29T03:43:21;10.65;;;4.97;;
57199;SDS011;43061;43.902;22.266;2022-07-29T03:45:49;8.18;;;4.28;;
57199;SDS011;43061;43.902;22.266;2022-07-29T03:48:17;8.63;;;4.60;;
57199;SDS011;43061;43.902;22.266;2022-07-29T03:50:45;11.43;;;5.30;;
57199;SDS011;43061;43.902;22.266;2022-07-29T03:53:11;9.30;;;5.40;;
57199;SDS011;43061;43.902;22.266;2022-07-29T03:55:40;9.88;;;4.90;;
57199;SDS011;43061;43.902;22.266;2022-07-29T03:58:07;11.40;;;5.60;;
57199;SDS011;43061;43.902;22.266;2022-07-29T04:00:34;10.20;;;5.18;;
57199;SDS011;43061;43.902;22.266;2022-07-29T04:03:01;12.40;;;6.00;;
57199;SDS011;43061;43.902;22.266;2022-07-29T04:05:27;12.27;;;5.80;;
57199;SDS011;43061;43.902;22.266;2022-07-29T04:07:53;11.55;;;5.70;;
57199;SDS011;43061;43.902;22.266;2022-07-29T04:10:19;11.27;;;5.85;;
57199;SDS011;43061;43.902;22.266;2022-07-29T04:12:45;13.55;;;6.60;;
57199;SDS011;43061;43.902;22.266;2022-07-29T04:15:11;12.20;;;5.95;;
57199;SDS011;43061;43.902;22.266;2022-07-29T04:17:37;11.07;;;5.80;;
57199;SDS011;43061;43.902;22.266;2022-07-29T04:20:04;10.75;;;5.75;;
57199;SDS011;43061;43.902;22.266;2022-07-29T04:22:30;10.88;;;5.78;;
57199;SDS011;43061;43.902;22.266;2022-07-29T04:24:56;11.50;;;5.68;;
57199;SDS011;43061;43.902;22.266;2022-07-29T04:27:22;9.98;;;5.75;;
57199;SDS011;43061;43.902;22.266;2022-07-29T04:29:48;12.43;;;5.82;;
57199;SDS011;43061;43.902;22.266;2022-07-29T04:32:14;9.60;;;6.05;;
57199;SDS011;43061;43.902;22.266;2022-07-29T04:34:40;10.35;;;5.85;;
57199;SDS011;43061;43.902;22.266;2022-07-29T04:37:06;10.32;;;5.70;;
57199;SDS011;43061;43.902;22.266;2022-07-29T04:39:32;9.20;;;5.22;;
57199;SDS011;43061;43.902;22.266;2022-07-29T04:41:58;10.32;;;5.57;;
57199;SDS011;43061;43.902;22.266;2022-07-29T04:44:24;10.27;;;5.65;;
57199;SDS011;43061;43.902;22.266;2022-07-29T04:46:51;11.75;;;5.43;;
57199;SDS011;43061;43.902;22.266;2022-07-29T04:49:17;11.45;;;5.63;;
57199;SDS011;43061;43.902;22.266;2022-07-29T04:51:43;10.93;;;5.70;;
57199;SDS011;43061;43.902;22.266;2022-07-29T04:54:09;9.77;;;5.25;;
57199;SDS011;43061;43.902;22.266;2022-07-29T04:56:35;9.25;;;5.30;;
57199;SDS011;43061;43.902;22.266;2022-07-29T04:59:02;11.98;;;5.57;;
57199;SDS011;43061;43.902;22.266;2022-07-29T05:01:28;10.27;;;5.20;;
57199;SDS011;43061;43.902;22.266;2022-07-29T05:03:54;10.07;;;5.40;;
57199;SDS011;43061;43.902;22.266;2022-07-29T05:06:20;9.98;;;5.40;;
57199;SDS011;43061;43.902;22.266;2022-07-29T05:08:46;9.90;;;6.03;;
57199;SDS011;43061;43.902;22.266;2022-07-29T05:11:12;10.73;;;5.70;;
57199;SDS011;43061;43.902;22.266;2022-07-29T05:13:38;10.10;;;5.80;;
57199;SDS011;43061;43.902;22.266;2022-07-29T05:16:04;9.15;;;5.63;;
57199;SDS011;43061;43.902;22.266;2022-07-29T05:18:30;7.20;;;5.20;;
57199;SDS011;43061;43.902;22.266;2022-07-29T05:20:56;8.68;;;5.25;;
57199;SDS011;43061;43.902;22.266;2022-07-29T05:23:22;8.90;;;5.70;;
57199;SDS011;43061;43.902;22.266;2022-07-29T05:25:49;9.40;;;5.95;;
57199;SDS011;43061;43.902;22.266;2022-07-29T05:28:15;19.27;;;6.80;;
57199;SDS011;43061;43.902;22.266;2022-07-29T05:30:41;12.10;;;6.82;;
57199;SDS011;43061;43.902;22.266;2022-07-29T05:33:09;9.82;;;6.07;;
57199;SDS011;43061;43.902;22.266;2022-07-29T05:35:35;11.65;;;6.70;;
57199;SDS011;43061;43.902;22.266;2022-07-29T05:38:02;12.88;;;7.80;;
57199;SDS011;43061;43.902;22.266;2022-07-29T05:40:28;11.80;;;6.15;;
57199;SDS011;43061;43.902;22.266;2022-07-29T05:42:54;11.70;;;6.97;;
57199;SDS011;43061;43.902;22.266;2022-07-29T05:45:21;10.50;;;6.35;;
57199;SDS011;43061;43.902;22.266;2022-07-29T05:47:48;12.23;;;6.53;;
57199;SDS011;43061;43.902;22.266;2022-07-29T05:50:14;10.45;;;5.72;;
57199;SDS011;43061;43.902;22.266;2022-07-29T05:52:40;11.05;;;5.75;;
57199;SDS011;43061;43.902;22.266;2022-07-29T05:55:06;9.73;;;5.72;;
57199;SDS011;43061;43.902;22.266;2022-07-29T05:57:32;11.10;;;6.20;;
57199;SDS011;43061;43.902;22.266;2022-07-29T05:59:58;12.85;;;7.15;;
57199;SDS011;43061;43.902;22.266;2022-07-29T06:02:25;11.13;;;6.78;;
57199;SDS011;43061;43.902;22.266;2022-07-29T06:04:51;12.40;;;7.45;;
57199;SDS011;43061;43.902;22.266;2022-07-29T06:07:17;13.02;;;8.07;;
57199;SDS011;43061;43.902;22.266;2022-07-29T06:09:43;13.07;;;8.50;;
57199;SDS011;43061;43.902;22.266;2022-07-29T06:12:09;11.13;;;8.32;;
57199;SDS011;43061;43.902;22.266;2022-07-29T06:14:35;12.20;;;8.52;;
57199;SDS011;43061;43.902;22.266;2022-07-29T06:17:03;11.27;;;8.48;;
57199;SDS011;43061;43.902;22.266;2022-07-29T06:19:30;19.20;;;8.85;;
57199;SDS011;43061;43.902;22.266;2022-07-29T06:21:56;12.45;;;8.70;;
57199;SDS011;43061;43.902;22.266;2022-07-29T06:24:22;13.77;;;9.07;;
57199;SDS011;43061;43.902;22.266;2022-07-29T06:26:48;11.45;;;8.15;;
57199;SDS011;43061;43.902;22.266;2022-07-29T06:29:14;15.63;;;8.50;;
57199;SDS011;43061;43.902;22.266;2022-07-29T06:31:40;12.88;;;8.52;;
57199;SDS011;43061;43.902;22.266;2022-07-29T06:34:06;15.45;;;8.55;;
57199;SDS011;43061;43.902;22.266;2022-07-29T06:36:36;12.45;;;8.45;;
57199;SDS011;43061;43.902;22.266;2022-07-29T06:39:06;13.55;;;8.52;;
57199;SDS011;43061;43.902;22.266;2022-07-29T06:41:33;14.45;;;8.93;;
57199;SDS011;43061;43.902;22.266;2022-07-29T06:43:59;14.32;;;9.40;;
57199;SDS011;43061;43.902;22.266;2022-07-29T06:46:26;13.55;;;8.13;;
57199;SDS011;43061;43.902;22.266;2022-07-29T06:48:52;13.98;;;9.70;;
57199;SDS011;43061;43.902;22.266;2022-07-29T06:51:19;12.85;;;9.10;;
57199;SDS011;43061;43.902;22.266;2022-07-29T06:53:45;14.73;;;9.52;;
57199;SDS011;43061;43.902;22.266;2022-07-29T06:56:11;13.82;;;9.00;;
57199;SDS011;43061;43.902;22.266;2022-07-29T06:58:38;17.30;;;10.23;;
57199;SDS011;43061;43.902;22.266;2022-07-29T07:01:05;15.45;;;9.50;;
57199;SDS011;43061;43.902;22.266;2022-07-29T07:03:31;14.93;;;10.02;;
57199;SDS011;43061;43.902;22.266;2022-07-29T07:05:58;13.73;;;9.27;;
57199;SDS011;43061;43.902;22.266;2022-07-29T07:08:24;13.55;;;9.10;;
57199;SDS011;43061;43.902;22.266;2022-07-29T07:10:50;13.93;;;9.57;;
57199;SDS011;43061;43.902;22.266;2022-07-29T07:13:17;14.63;;;8.38;;
57199;SDS011;43061;43.902;22.266;2022-07-29T07:15:44;12.77;;;8.00;;
57199;SDS011;43061;43.902;22.266;2022-07-29T07:18:12;12.35;;;8.07;;
57199;SDS011;43061;43.902;22.266;2022-07-29T07:20:38;11.93;;;7.97;;
57199;SDS011;43061;43.902;22.266;2022-07-29T07:23:04;14.38;;;7.80;;
57199;SDS011;43061;43.902;22.266;2022-07-29T07:25:31;13.55;;;8.10;;
57199;SDS011;43061;43.902;22.266;2022-07-29T07:27:57;12.80;;;8.20;;
57199;SDS011;43061;43.902;22.266;2022-07-29T07:30:23;11.57;;;8.25;;
57199;SDS011;43061;43.902;22.266;2022-07-29T07:32:49;10.95;;;7.90;;
57199;SDS011;43061;43.902;22.266;2022-07-29T07:35:15;15.55;;;8.85;;
57199;SDS011;43061;43.902;22.266;2022-07-29T07:37:41;14.52;;;8.75;;
57199;SDS011;43061;43.902;22.266;2022-07-29T07:40:08;13.05;;;8.45;;
57199;SDS011;43061;43.902;22.266;2022-07-29T07:42:35;12.27;;;9.70;;
57199;SDS011;43061;43.902;22.266;2022-07-29T07:45:01;16.13;;;9.80;;
57199;SDS011;43061;43.902;22.266;2022-07-29T07:47:27;12.18;;;8.40;;
57199;SDS011;43061;43.902;22.266;2022-07-29T07:49:53;15.15;;;9.68;;
57199;SDS011;43061;43.902;22.266;2022-07-29T07:52:20;15.73;;;9.77;;
57199;SDS011;43061;43.902;22.266;2022-07-29T07:54:46;14.98;;;9.65;;
57199;SDS011;43061;43.902;22.266;2022-07-29T07:57:13;13.50;;;9.98;;
57199;SDS011;43061;43.902;22.266;2022-07-29T07:59:39;13.57;;;10.05;;
57199;SDS011;43061;43.902;22.266;2022-07-29T08:02:06;16.60;;;11.93;;
57199;SDS011;43061;43.902;22.266;2022-07-29T08:04:33;12.02;;;9.77;;
57199;SDS011;43061;43.902;22.266;2022-07-29T08:06:59;13.52;;;9.65;;
57199;SDS011;43061;43.902;22.266;2022-07-29T08:09:26;14.68;;;10.23;;
57199;SDS011;43061;43.902;22.266;2022-07-29T08:11:52;11.32;;;9.85;;
57199;SDS011;43061;43.902;22.266;2022-07-29T08:14:18;14.65;;;10.70;;
57199;SDS011;43061;43.902;22.266;2022-07-29T08:16:45;12.77;;;10.05;;
57199;SDS011;43061;43.902;22.266;2022-07-29T08:19:11;12.70;;;9.88;;
57199;SDS011;43061;43.902;22.266;2022-07-29T08:21:37;15.05;;;9.32;;
57199;SDS011;43061;43.902;22.266;2022-07-29T08:24:03;13.73;;;10.15;;
57199;SDS011;43061;43.902;22.266;2022-07-29T08:26:48;14.30;;;9.93;;
57199;SDS011;43061;43.902;22.266;2022-07-29T08:29:14;15.25;;;10.25;;
57199;SDS011;43061;43.902;22.266;2022-07-29T08:31:41;16.00;;;10.20;;
57199;SDS011;43061;43.902;22.266;2022-07-29T08:34:07;13.25;;;9.60;;
57199;SDS011;43061;43.902;22.266;2022-07-29T08:36:33;15.48;;;10.00;;
57199;SDS011;43061;43.902;22.266;2022-07-29T08:39:00;13.05;;;9.60;;
57199;SDS011;43061;43.902;22.266;2022-07-29T08:41:27;13.52;;;9.40;;
57199;SDS011;43061;43.902;22.266;2022-07-29T08:44:07;13.00;;;9.40;;
57199;SDS011;43061;43.902;22.266;2022-07-29T08:46:36;15.38;;;9.95;;
57199;SDS011;43061;43.902;22.266;2022-07-29T08:49:03;12.30;;;9.50;;
57199;SDS011;43061;43.902;22.266;2022-07-29T08:51:30;18.63;;;10.05;;
57199;SDS011;43061;43.902;22.266;2022-07-29T08:53:56;12.98;;;9.60;;
57199;SDS011;43061;43.902;22.266;2022-07-29T08:56:23;13.45;;;9.75;;
57199;SDS011;43061;43.902;22.266;2022-07-29T08:58:49;11.52;;;9.35;;
57199;SDS011;43061;43.902;22.266;2022-07-29T09:01:16;13.27;;;9.73;;
57199;SDS011;43061;43.902;22.266;2022-07-29T09:03:43;13.15;;;9.18;;
57199;SDS011;43061;43.902;22.266;2022-07-29T09:06:12;12.73;;;9.73;;
57199;SDS011;43061;43.902;22.266;2022-07-29T09:08:38;12.13;;;10.05;;
57199;SDS011;43061;43.902;22.266;2022-07-29T09:11:05;12.70;;;9.95;;
57199;SDS011;43061;43.902;22.266;2022-07-29T09:13:32;13.35;;;10.18;;
57199;SDS011;43061;43.902;22.266;2022-07-29T09:15:59;14.18;;;9.88;;
57199;SDS011;43061;43.902;22.266;2022-07-29T09:18:35;15.60;;;10.32;;
57199;SDS011;43061;43.902;22.266;2022-07-29T09:21:02;11.82;;;9.43;;
57199;SDS011;43061;43.902;22.266;2022-07-29T09:26:32;14.98;;;9.75;;
57199;SDS011;43061;43.902;22.266;2022-07-29T09:28:59;12.55;;;9.18;;
57199;SDS011;43061;43.902;22.266;2022-07-29T09:31:44;12.07;;;9.27;;
57199;SDS011;43061;43.902;22.266;2022-07-29T09:34:10;12.55;;;9.52;;
57199;SDS011;43061;43.902;22.266;2022-07-29T09:36:41;12.63;;;9.77;;
57199;SDS011;43061;43.902;22.266;2022-07-29T09:39:07;14.15;;;10.00;;
57199;SDS011;43061;43.902;22.266;2022-07-29T09:41:49;14.30;;;10.13;;
57199;SDS011;43061;43.902;22.266;2022-07-29T09:44:18;12.57;;;9.48;;
57199;SDS011;43061;43.902;22.266;2022-07-29T09:46:54;15.35;;;9.85;;
57199;SDS011;43061;43.902;22.266;2022-07-29T09:49:20;12.07;;;9.32;;
57199;SDS011;43061;43.902;22.266;2022-07-29T09:51:46;13.88;;;9.23;;
57199;SDS011;43061;43.902;22.266;2022-07-29T09:54:22;11.88;;;9.10;;
57199;SDS011;43061;43.902;22.266;2022-07-29T09:56:48;14.35;;;9.15;;
57199;SDS011;43061;43.902;22.266;2022-07-29T09:59:15;11.60;;;9.35;;
57199;SDS011;43061;43.902;22.266;2022-07-29T10:01:41;12.15;;;9.40;;
57199;SDS011;43061;43.902;22.266;2022-07-29T10:04:07;13.50;;;9.05;;
57199;SDS011;43061;43.902;22.266;2022-07-29T10:06:33;11.70;;;9.20;;
57199;SDS011;43061;43.902;22.266;2022-07-29T10:09:09;11.88;;;9.30;;
57199;SDS011;43061;43.902;22.266;2022-07-29T10:11:35;11.02;;;9.45;;
57199;SDS011;43061;43.902;22.266;2022-07-29T10:14:02;11.25;;;8.82;;
57199;SDS011;43061;43.902;22.266;2022-07-29T10:16:30;12.85;;;9.32;;
57199;SDS011;43061;43.902;22.266;2022-07-29T10:18:59;10.82;;;8.85;;
57199;SDS011;43061;43.902;22.266;2022-07-29T10:21:26;11.13;;;8.63;;
57199;SDS011;43061;43.902;22.266;2022-07-29T10:23:52;11.38;;;8.52;;
57199;SDS011;43061;43.902;22.266;2022-07-29T10:26:19;13.82;;;8.68;;
57199;SDS011;43061;43.902;22.266;2022-07-29T10:28:45;12.10;;;8.93;;
57199;SDS011;43061;43.902;22.266;2022-07-29T10:31:23;11.15;;;8.55;;
57199;SDS011;43061;43.902;22.266;2022-07-29T10:34:36;11.98;;;8.70;;
57199;SDS011;43061;43.902;22.266;2022-07-29T10:37:16;11.63;;;9.40;;
57199;SDS011;43061;43.902;22.266;2022-07-29T10:42:19;13.23;;;9.43;;
57199;SDS011;43061;43.902;22.266;2022-07-29T10:44:48;12.57;;;9.10;;
57199;SDS011;43061;43.902;22.266;2022-07-29T10:47:24;13.07;;;9.20;;
57199;SDS011;43061;43.902;22.266;2022-07-29T10:50:08;12.20;;;8.75;;
57199;SDS011;43061;43.902;22.266;2022-07-29T10:52:53;11.43;;;9.35;;
57199;SDS011;43061;43.902;22.266;2022-07-29T10:55:34;14.07;;;8.80;;
57199;SDS011;43061;43.902;22.266;2022-07-29T10:58:23;9.77;;;8.73;;
57199;SDS011;43061;43.902;22.266;2022-07-29T11:00:50;11.55;;;9.35;;
57199;SDS011;43061;43.902;22.266;2022-07-29T11:06:18;11.52;;;9.32;;
57199;SDS011;43061;43.902;22.266;2022-07-29T11:08:44;12.32;;;9.05;;
57199;SDS011;43061;43.902;22.266;2022-07-29T11:16:15;11.25;;;9.23;;
57199;SDS011;43061;43.902;22.266;2022-07-29T11:21:35;13.68;;;9.35;;
57199;SDS011;43061;43.902;22.266;2022-07-29T11:24:14;12.70;;;9.48;;
57199;SDS011;43061;43.902;22.266;2022-07-29T11:26:41;13.05;;;9.52;;
57199;SDS011;43061;43.902;22.266;2022-07-29T11:31:44;10.93;;;8.90;;
57199;SDS011;43061;43.902;22.266;2022-07-29T11:39:30;13.90;;;9.75;;
57199;SDS011;43061;43.902;22.266;2022-07-29T11:44:54;11.88;;;9.00;;
57199;SDS011;43061;43.902;22.266;2022-07-29T11:47:28;12.50;;;8.63;;
57199;SDS011;43061;43.902;22.266;2022-07-29T11:49:55;11.00;;;8.73;;
57199;SDS011;43061;43.902;22.266;2022-07-29T11:52:35;11.77;;;8.43;;
57199;SDS011;43061;43.902;22.266;2022-07-29T11:55:03;10.25;;;8.55;;
57199;SDS011;43061;43.902;22.266;2022-07-29T11:57:30;10.43;;;8.90;;
57199;SDS011;43061;43.902;22.266;2022-07-29T11:59:57;10.20;;;7.88;;
57199;SDS011;43061;43.902;22.266;2022-07-29T12:02:23;10.82;;;8.30;;
57199;SDS011;43061;43.902;22.266;2022-07-29T12:07:15;12.13;;;8.55;;
57199;SDS011;43061;43.902;22.266;2022-07-29T12:09:51;11.15;;;8.65;;
57199;SDS011;43061;43.902;22.266;2022-07-29T12:12:17;10.48;;;8.32;;
57199;SDS011;43061;43.902;22.266;2022-07-29T12:14:44;10.77;;;8.68;;
57199;SDS011;43061;43.902;22.266;2022-07-29T12:17:31;12.80;;;8.60;;
57199;SDS011;43061;43.902;22.266;2022-07-29T12:19:59;11.65;;;8.40;;
57199;SDS011;43061;43.902;22.266;2022-07-29T12:22:26;11.65;;;8.88;;
57199;SDS011;43061;43.902;22.266;2022-07-29T12:24:53;10.68;;;8.38;;
57199;SDS011;43061;43.902;22.266;2022-07-29T12:27:19;11.68;;;8.55;;
57199;SDS011;43061;43.902;22.266;2022-07-29T12:29:54;13.45;;;8.75;;
57199;SDS011;43061;43.902;22.266;2022-07-29T12:32:21;11.05;;;8.60;;
57199;SDS011;43061;43.902;22.266;2022-07-29T12:34:47;9.88;;;8.60;;
57199;SDS011;43061;43.902;22.266;2022-07-29T12:37:13;10.70;;;9.15;;
57199;SDS011;43061;43.902;22.266;2022-07-29T12:39:39;10.35;;;7.63;;
57199;SDS011;43061;43.902;22.266;2022-07-29T12:42:12;10.18;;;8.30;;
57199;SDS011;43061;43.902;22.266;2022-07-29T12:47:11;12.55;;;8.90;;
57199;SDS011;43061;43.902;22.266;2022-07-29T12:49:37;11.20;;;7.90;;
57199;SDS011;43061;43.902;22.266;2022-07-29T12:54:48;11.48;;;7.55;;
57199;SDS011;43061;43.902;22.266;2022-07-29T12:57:14;10.07;;;7.70;;
57199;SDS011;43061;43.902;22.266;2022-07-29T12:59:40;11.35;;;7.30;;
57199;SDS011;43061;43.902;22.266;2022-07-29T13:02:07;10.90;;;7.32;;
57199;SDS011;43061;43.902;22.266;2022-07-29T13:04:54;9.80;;;6.95;;
57199;SDS011;43061;43.902;22.266;2022-07-29T13:07:29;9.88;;;7.10;;
57199;SDS011;43061;43.902;22.266;2022-07-29T13:10:10;9.48;;;7.63;;
57199;SDS011;43061;43.902;22.266;2022-07-29T13:12:37;11.75;;;7.28;;
57199;SDS011;43061;43.902;22.266;2022-07-29T13:15:15;14.60;;;7.30;;
57199;SDS011;43061;43.902;22.266;2022-07-29T13:17:42;9.75;;;6.50;;
57199;SDS011;43061;43.902;22.266;2022-07-29T13:20:09;10.98;;;7.60;;
57199;SDS011;43061;43.902;22.266;2022-07-29T13:22:40;10.65;;;6.70;;
57199;SDS011;43061;43.902;22.266;2022-07-29T13:25:07;10.55;;;6.80;;
57199;SDS011;43061;43.902;22.266;2022-07-29T13:27:35;9.13;;;6.60;;
57199;SDS011;43061;43.902;22.266;2022-07-29T13:30:03;11.70;;;7.78;;
57199;SDS011;43061;43.902;22.266;2022-07-29T13:32:30;9.07;;;6.97;;
57199;SDS011;43061;43.902;22.266;2022-07-29T13:34:56;10.75;;;6.97;;
57199;SDS011;43061;43.902;22.266;2022-07-29T13:37:23;11.82;;;6.57;;
57199;SDS011;43061;43.902;22.266;2022-07-29T13:39:49;9.95;;;6.60;;
57199;SDS011;43061;43.902;22.266;2022-07-29T13:42:15;10.07;;;6.50;;
57199;SDS011;43061;43.902;22.266;2022-07-29T13:44:41;11.57;;;6.78;;
57199;SDS011;43061;43.902;22.266;2022-07-29T13:47:07;8.57;;;6.65;;
57199;SDS011;43061;43.902;22.266;2022-07-29T13:49:34;7.65;;;6.57;;
57199;SDS011;43061;43.902;22.266;2022-07-29T13:52:00;10.38;;;6.55;;
57199;SDS011;43061;43.902;22.266;2022-07-29T13:54:27;8.80;;;6.55;;
57199;SDS011;43061;43.902;22.266;2022-07-29T13:56:53;10.32;;;6.55;;
57199;SDS011;43061;43.902;22.266;2022-07-29T13:59:19;10.52;;;6.78;;
57199;SDS011;43061;43.902;22.266;2022-07-29T14:01:45;9.63;;;6.40;;
57199;SDS011;43061;43.902;22.266;2022-07-29T14:04:11;12.40;;;6.45;;
57199;SDS011;43061;43.902;22.266;2022-07-29T14:06:37;9.60;;;6.40;;
57199;SDS011;43061;43.902;22.266;2022-07-29T14:09:04;8.77;;;6.47;;
57199;SDS011;43061;43.902;22.266;2022-07-29T14:11:36;10.38;;;6.95;;
57199;SDS011;43061;43.902;22.266;2022-07-29T14:14:03;10.77;;;7.78;;
57199;SDS011;43061;43.902;22.266;2022-07-29T14:16:29;9.63;;;7.22;;
57199;SDS011;43061;43.902;22.266;2022-07-29T14:18:55;10.27;;;6.72;;
57199;SDS011;43061;43.902;22.266;2022-07-29T14:21:21;9.52;;;6.60;;
57199;SDS011;43061;43.902;22.266;2022-07-29T14:23:48;9.93;;;6.97;;
57199;SDS011;43061;43.902;22.266;2022-07-29T14:26:14;11.00;;;6.63;;
57199;SDS011;43061;43.902;22.266;2022-07-29T14:28:40;8.88;;;6.45;;
57199;SDS011;43061;43.902;22.266;2022-07-29T14:31:06;9.35;;;6.20;;
57199;SDS011;43061;43.902;22.266;2022-07-29T14:33:32;8.50;;;6.20;;
57199;SDS011;43061;43.902;22.266;2022-07-29T14:35:58;13.15;;;6.35;;
57199;SDS011;43061;43.902;22.266;2022-07-29T14:38:24;9.38;;;6.20;;
57199;SDS011;43061;43.902;22.266;2022-07-29T14:40:50;8.27;;;6.45;;
57199;SDS011;43061;43.902;22.266;2022-07-29T14:43:17;11.35;;;6.85;;
57199;SDS011;43061;43.902;22.266;2022-07-29T14:45:43;10.98;;;6.20;;
57199;SDS011;43061;43.902;22.266;2022-07-29T14:48:09;9.77;;;6.90;;
57199;SDS011;43061;43.902;22.266;2022-07-29T14:50:36;9.45;;;6.60;;
57199;SDS011;43061;43.902;22.266;2022-07-29T14:53:02;21.67;;;6.50;;
57199;SDS011;43061;43.902;22.266;2022-07-29T14:55:29;8.80;;;6.18;;
57199;SDS011;43061;43.902;22.266;2022-07-29T14:57:55;9.52;;;6.10;;
57199;SDS011;43061;43.902;22.266;2022-07-29T15:00:22;9.45;;;6.22;;
57199;SDS011;43061;43.902;22.266;2022-07-29T15:02:48;10.00;;;5.90;;
57199;SDS011;43061;43.902;22.266;2022-07-29T15:05:14;9.93;;;6.03;;
57199;SDS011;43061;43.902;22.266;2022-07-29T15:07:40;11.68;;;6.13;;
57199;SDS011;43061;43.902;22.266;2022-07-29T15:10:06;8.52;;;5.93;;
57199;SDS011;43061;43.902;22.266;2022-07-29T15:12:32;8.98;;;5.97;;
57199;SDS011;43061;43.902;22.266;2022-07-29T15:14:59;9.73;;;6.03;;
57199;SDS011;43061;43.902;22.266;2022-07-29T15:17:25;11.68;;;6.53;;